FAPE

Port Elizabeth Airport

Port Elizabeth, South Africa
METAR FAPE 201300Z 16011KT 130V190 9999 FEW030 SCT041 17/07 Q1033 NOSIG
Observed Flight Rules
Oct-20 @ 13:00 UTC (22 minutes ago) Visual Flight Rules
Wind Visibility Clouds
160° at 11 knots 10,000+ meters
  • Few at 3,000' AGL
  • Scattered at 4,100' AGL
Temperatures Readings
Current 17°C / 63°F
Dewpoint 7°C / 45°F
Humidity 52%
Altimeter 30.5" Hg
Pressure 1033 hPa
Elevation 60
METAR FAPE 201300Z 16011KT 130V190 9999 FEW030 SCT041 17/07 Q1033 NOSIG
Observed Flight Rules
Oct-20 @ 13:00 UTC
(22 minutes ago)
VFR
Wind Visibility
160° at 11 knots 10,000+ meters
Clouds
  • Few at 3,000' AGL
  • Scattered at 4,100' AGL
Temperature Dewpoint
17°C / 63°F 7°C / 45°F
Humidity Altimeter Pressure
52% 30.5" Hg 1033 hPa